createdAt,value
2023-08-02T00:12:57.723Z,99074.95
2023-08-02T00:28:00.427Z,99083.98
2023-08-02T00:43:03.513Z,99085.36
2023-08-02T00:58:06.280Z,99095.26
2023-08-02T01:13:11.967Z,99093.45
2023-08-02T01:28:21.503Z,99107.38
2023-08-02T01:43:24.326Z,99109.95
2023-08-02T01:58:26.944Z,99121.88
2023-08-02T02:13:29.592Z,99124.00
2023-08-02T02:28:32.221Z,99130.89
2023-08-02T02:43:34.951Z,99135.66
2023-08-02T02:58:37.645Z,99144.09
2023-08-02T03:13:40.794Z,99150.05
2023-08-02T03:28:43.632Z,99159.59
2023-08-02T03:43:46.538Z,99156.16
2023-08-02T03:58:49.281Z,99168.29
2023-08-02T04:13:52.092Z,99171.28
2023-08-02T04:28:54.774Z,99172.98
2023-08-02T04:43:57.438Z,99182.70
2023-08-02T04:59:00.173Z,99183.41
2023-08-02T05:14:02.908Z,99181.46
2023-08-02T05:29:05.933Z,99182.23
2023-08-02T05:44:08.744Z,99198.58
2023-08-02T05:59:11.532Z,99193.95
2023-08-02T06:14:14.471Z,99214.27
2023-08-02T06:29:17.186Z,99203.10
2023-08-02T06:44:20.017Z,99206.23
2023-08-02T06:59:25.877Z,99207.83
2023-08-02T07:14:29.404Z,99180.61
2023-08-02T07:29:32.101Z,99180.20
2023-08-02T07:44:35.023Z,99178.80
2023-08-02T07:59:37.815Z,99172.63
2023-08-02T08:14:43.014Z,99175.45
2023-08-02T08:29:45.716Z,99163.83
2023-08-02T08:44:49.850Z,99159.77
2023-08-02T08:59:52.959Z,99165.08
2023-08-02T09:15:01.539Z,99149.73
2023-08-02T09:30:04.969Z,99147.14
2023-08-02T09:45:09.975Z,99131.81
2023-08-02T10:00:13.528Z,99126.98
2023-08-02T10:15:16.605Z,99112.65
2023-08-02T10:30:19.456Z,99100.20
2023-08-02T10:45:22.130Z,99088.67
2023-08-02T11:00:33.048Z,99074.38
2023-08-02T11:15:37.294Z,99066.93
2023-08-02T11:30:40.236Z,99060.63
2023-08-02T11:45:43.135Z,99043.84
2023-08-02T12:00:46.120Z,99028.88
2023-08-02T12:16:02.878Z,98986.02
2023-08-02T12:31:06.733Z,98972.61
2023-08-02T12:46:09.693Z,98953.99
2023-08-02T13:01:12.773Z,98945.54
2023-08-02T13:16:15.871Z,98935.79
2023-08-02T13:31:18.754Z,98932.20
2023-08-02T13:46:21.499Z,98904.21
2023-08-02T14:01:24.576Z,98888.77
2023-08-02T14:16:27.427Z,98868.25
2023-08-02T14:31:30.351Z,98868.96
2023-08-02T14:46:33.257Z,98839.07
2023-08-02T15:01:36.019Z,98819.92
2023-08-02T15:16:39.302Z,98785.34
2023-08-02T15:31:45.162Z,98742.65
2023-08-02T15:46:48.124Z,98728.80
2023-08-02T16:01:51.091Z,98713.27
2023-08-02T16:16:53.864Z,98707.11
2023-08-02T16:31:56.615Z,98681.52
2023-08-02T16:46:59.278Z,98683.03
2023-08-02T17:02:02.139Z,98675.38
2023-08-02T17:17:05.121Z,98657.83
2023-08-02T17:32:08.450Z,98681.20
2023-08-02T17:47:11.118Z,98694.20
2023-08-02T18:02:13.846Z,98684.91
2023-08-02T18:17:16.588Z,98692.02
2023-08-02T18:32:19.751Z,98688.79
2023-08-02T18:47:22.811Z,98678.46
2023-08-02T19:02:25.643Z,98669.48
2023-08-02T19:17:29.201Z,98641.71
2023-08-02T19:32:33.866Z,98596.20
2023-08-02T19:47:36.849Z,98523.67
2023-08-02T20:02:39.797Z,98572.11
2023-08-02T20:17:43.215Z,98591.23
2023-08-02T20:32:51.381Z,98574.17
2023-08-02T20:47:54.137Z,98551.92
2023-08-02T21:02:57.008Z,98622.80
2023-08-02T21:18:00.051Z,98588.45
2023-08-02T21:33:04.603Z,98590.36
2023-08-02T21:48:09.692Z,98606.34
2023-08-02T22:03:14.995Z,98591.50
2023-08-02T22:18:17.920Z,98613.21
2023-08-02T22:33:20.660Z,98640.95
2023-08-02T22:49:11.954Z,98689.08
2023-08-02T23:03:47.212Z,98680.15
2023-08-02T23:18:51.694Z,98666.64
2023-08-02T23:33:55.285Z,98634.39
2023-08-02T23:48:57.973Z,98606.16
